createdAt,value
2023-10-09T00:01:53.368Z,21.10
2023-10-09T00:04:21.913Z,23.20
2023-10-09T00:06:50.027Z,19.30
2023-10-09T00:09:23.745Z,26.80
2023-10-09T00:11:59.326Z,14.60
2023-10-09T00:14:31.647Z,16.00
2023-10-09T00:17:28.595Z,19.00
2023-10-09T00:20:01.230Z,19.40
2023-10-09T00:22:31.206Z,18.20
2023-10-09T00:25:13.043Z,51.80
2023-10-09T00:27:53.181Z,20.00
2023-10-09T00:30:23.831Z,17.50
2023-10-09T00:33:03.044Z,17.10
2023-10-09T00:35:59.959Z,17.00
2023-10-09T00:39:02.246Z,17.90
2023-10-09T00:41:30.542Z,16.50
2023-10-09T00:44:00.756Z,18.80
2023-10-09T00:46:29.088Z,19.20
2023-10-09T00:49:02.336Z,33.50
2023-10-09T00:51:39.921Z,19.10
2023-10-09T00:54:16.744Z,19.40
2023-10-09T00:56:53.100Z,19.40
2023-10-09T00:59:23.585Z,23.30
2023-10-09T01:09:07.616Z,106.60
2023-10-09T01:11:35.964Z,21.00
2023-10-09T01:14:09.514Z,17.70
2023-10-09T01:16:37.596Z,18.60
2023-10-09T01:19:14.386Z,17.70
2023-10-09T01:21:42.310Z,19.80
2023-10-09T01:24:10.331Z,19.00
2023-10-09T01:26:47.553Z,20.10
2023-10-09T01:29:20.178Z,19.60
2023-10-09T01:31:53.561Z,20.40
2023-10-09T01:34:26.278Z,19.40
2023-10-09T01:37:01.309Z,21.90
2023-10-09T01:39:31.867Z,21.50
2023-10-09T01:42:00.240Z,21.90
2023-10-09T01:44:36.103Z,18.50
2023-10-09T01:47:08.876Z,18.90
2023-10-09T01:49:38.640Z,19.00
2023-10-09T01:52:10.638Z,25.80
2023-10-09T01:54:38.962Z,21.40
2023-10-09T01:57:13.631Z,21.40
2023-10-09T01:59:51.041Z,19.50
2023-10-09T02:02:32.768Z,18.40
2023-10-09T02:05:12.315Z,25.80
2023-10-09T02:07:52.770Z,34.70
2023-10-09T02:10:31.017Z,25.00
2023-10-09T02:12:59.541Z,26.70
2023-10-09T02:15:44.010Z,21.90
2023-10-09T02:21:06.993Z,19.40
2023-10-09T02:23:42.534Z,29.80
2023-10-09T02:26:18.381Z,45.40
2023-10-09T02:29:00.567Z,22.80
2023-10-09T02:31:42.341Z,18.90
2023-10-09T02:34:17.091Z,19.50
2023-10-09T02:36:50.952Z,20.30
2023-10-09T02:39:25.438Z,22.70
2023-10-09T02:42:16.406Z,22.80
2023-10-09T02:44:53.468Z,22.80
2023-10-09T02:47:25.722Z,21.30
2023-10-09T02:49:53.738Z,19.60
2023-10-09T02:52:26.577Z,19.60
2023-10-09T02:55:01.068Z,19.70
2023-10-09T03:00:20.545Z,54.50
2023-10-09T03:02:51.629Z,29.30
2023-10-09T03:05:22.096Z,20.90
2023-10-09T03:07:50.385Z,19.40
2023-10-09T03:10:18.778Z,19.20
2023-10-09T03:12:46.800Z,19.90
2023-10-09T03:15:15.444Z,55.60
2023-10-09T03:17:46.391Z,43.50
2023-10-09T03:20:15.355Z,43.20
2023-10-09T03:22:49.330Z,19.30
2023-10-09T03:25:18.539Z,19.00
2023-10-09T03:27:47.305Z,17.90
2023-10-09T03:30:24.799Z,78.60
2023-10-09T03:32:55.324Z,28.40
2023-10-09T03:35:28.320Z,22.30
2023-10-09T03:38:13.376Z,30.90
2023-10-09T03:40:45.252Z,20.10
2023-10-09T03:43:13.183Z,17.60
2023-10-09T03:45:53.380Z,26.40
2023-10-09T03:48:33.144Z,22.00
2023-10-09T03:51:10.463Z,27.20
2023-10-09T03:53:44.769Z,26.90
2023-10-09T03:56:17.184Z,23.70
2023-10-09T03:58:50.744Z,22.70
2023-10-09T04:01:30.045Z,28.80
2023-10-09T04:04:02.509Z,21.20
2023-10-09T04:06:33.702Z,19.10
2023-10-09T04:09:15.400Z,17.40
2023-10-09T04:11:44.595Z,18.50
2023-10-09T04:14:20.749Z,18.10
2023-10-09T04:17:07.592Z,19.60
2023-10-09T04:19:49.536Z,24.40
2023-10-09T04:22:28.539Z,23.60
2023-10-09T04:24:58.518Z,18.90
2023-10-09T04:27:37.072Z,18.00
2023-10-09T04:30:08.722Z,16.00
2023-10-09T04:32:36.703Z,19.60
2023-10-09T04:35:23.183Z,18.30
2023-10-09T04:38:01.540Z,37.90
2023-10-09T04:40:47.740Z,17.00
2023-10-09T04:43:22.076Z,14.40
2023-10-09T04:46:08.768Z,14.70
2023-10-09T04:48:39.999Z,21.30
2023-10-09T04:51:36.160Z,21.50
2023-10-09T04:54:21.323Z,17.30
2023-10-09T04:56:55.439Z,49.10
2023-10-09T04:59:27.260Z,47.10
2023-10-09T05:02:05.853Z,24.30
2023-10-09T05:04:56.613Z,19.70
2023-10-09T05:07:56.193Z,21.60
2023-10-09T05:10:27.055Z,17.20
2023-10-09T05:13:00.707Z,29.10
2023-10-09T05:15:31.204Z,19.80
2023-10-09T05:17:59.906Z,17.50
2023-10-09T05:20:27.942Z,13.90
2023-10-09T05:22:59.705Z,14.90
2023-10-09T05:25:46.728Z,14.30
2023-10-09T05:28:32.271Z,32.40
2023-10-09T05:31:10.648Z,17.20
2023-10-09T05:33:39.633Z,16.60
2023-10-09T05:36:26.449Z,14.90
2023-10-09T05:39:00.469Z,16.90
2023-10-09T05:41:53.439Z,23.40
2023-10-09T05:44:50.852Z,15.40
2023-10-09T05:47:30.463Z,26.90
2023-10-09T05:50:24.491Z,24.40
2023-10-09T05:52:57.976Z,22.20
2023-10-09T05:55:46.091Z,25.10
2023-10-09T06:00:21.391Z,26.20
2023-10-09T06:05:05.695Z,39.70
2023-10-09T06:09:36.567Z,30.60
2023-10-09T06:14:08.124Z,29.30
2023-10-09T06:17:44.970Z,34.30
2023-10-09T06:20:32.982Z,21.60
2023-10-09T06:23:17.049Z,30.20
2023-10-09T06:25:54.478Z,17.30
2023-10-09T06:28:34.463Z,21.20
2023-10-09T06:31:22.696Z,31.50
2023-10-09T06:34:17.026Z,15.80
2023-10-09T06:36:54.762Z,13.90
2023-10-09T06:39:41.733Z,27.30
2023-10-09T06:42:32.465Z,23.20
2023-10-09T06:45:12.803Z,14.00
2023-10-09T06:48:18.778Z,14.40
2023-10-09T06:51:05.466Z,16.40
2023-10-09T06:53:52.208Z,13.50
2023-10-09T06:56:31.785Z,14.50
2023-10-09T06:59:16.481Z,13.20
2023-10-09T07:01:45.497Z,13.60
2023-10-09T07:04:21.354Z,15.80
2023-10-09T07:06:52.316Z,13.90
2023-10-09T07:09:20.912Z,12.10
2023-10-09T07:11:51.097Z,13.60
2023-10-09T07:14:33.923Z,20.70
2023-10-09T07:17:17.308Z,22.30
2023-10-09T07:19:48.860Z,12.40
2023-10-09T07:22:22.689Z,7.00
2023-10-09T07:24:59.267Z,7.20
2023-10-09T07:27:46.062Z,8.00
2023-10-09T07:30:32.572Z,7.10
2023-10-09T07:33:13.322Z,6.00
2023-10-09T07:35:44.589Z,5.00
2023-10-09T07:38:21.153Z,5.00
2023-10-09T07:41:01.060Z,4.80
2023-10-09T07:43:40.783Z,5.60
2023-10-09T07:46:30.708Z,6.30
2023-10-09T07:49:01.903Z,5.90
2023-10-09T07:51:32.640Z,5.20
2023-10-09T07:54:08.487Z,4.80
2023-10-09T07:56:46.729Z,5.10
2023-10-09T07:59:19.935Z,6.70
2023-10-09T08:02:00.524Z,7.00
2023-10-09T08:04:47.048Z,7.20
2023-10-09T08:08:06.682Z,7.10
2023-10-09T08:10:23.306Z,7.70
2023-10-09T08:12:51.319Z,5.70
2023-10-09T08:15:20.014Z,5.30
2023-10-09T08:18:19.881Z,5.30
2023-10-09T08:21:02.967Z,4.90
2023-10-09T08:23:30.954Z,4.80
2023-10-09T08:26:14.437Z,5.10
2023-10-09T08:28:50.025Z,5.00
2023-10-09T08:31:46.673Z,5.90
2023-10-09T08:37:14.601Z,5.90
2023-10-09T08:39:43.885Z,5.70
2023-10-09T08:42:11.884Z,5.80
2023-10-09T08:44:45.604Z,5.50
2023-10-09T08:47:14.088Z,6.10
2023-10-09T08:49:43.729Z,6.60
2023-10-09T08:52:12.360Z,6.60
2023-10-09T08:54:40.302Z,6.10
2023-10-09T08:57:10.778Z,8.50
2023-10-09T08:59:47.725Z,7.00
2023-10-09T09:02:18.705Z,6.90
2023-10-09T09:04:51.919Z,7.40
2023-10-09T09:07:27.546Z,5.80
2023-10-09T09:09:58.579Z,6.70
2023-10-09T09:12:29.658Z,5.50
2023-10-09T09:14:59.681Z,7.30
2023-10-09T09:17:36.540Z,5.50
2023-10-09T09:20:24.293Z,7.90
2023-10-09T09:23:02.407Z,7.30
2023-10-09T09:25:47.022Z,6.00
2023-10-09T09:28:22.742Z,6.10
2023-10-09T09:30:58.843Z,6.80
2023-10-09T09:33:29.789Z,6.00
2023-10-09T09:35:59.557Z,11.20
2023-10-09T09:38:29.322Z,5.00
2023-10-09T09:41:08.733Z,4.70
2023-10-09T09:43:42.046Z,4.90
2023-10-09T09:46:13.545Z,4.60
2023-10-09T09:48:45.534Z,7.80
2023-10-09T09:51:18.746Z,6.20
2023-10-09T09:53:50.962Z,9.10
2023-10-09T09:56:22.799Z,5.40
2023-10-09T09:58:58.023Z,4.70
2023-10-09T10:01:37.741Z,4.80
2023-10-09T10:04:15.118Z,4.90
2023-10-09T10:06:46.522Z,6.00
2023-10-09T10:09:47.001Z,6.30
2023-10-09T10:12:18.898Z,6.10
2023-10-09T10:15:00.898Z,7.40
2023-10-09T10:17:30.756Z,6.80
2023-10-09T10:20:02.554Z,6.50
2023-10-09T10:22:31.987Z,5.10
2023-10-09T10:25:04.031Z,7.30
2023-10-09T10:27:32.097Z,4.80
2023-10-09T10:30:12.315Z,6.00
2023-10-09T10:32:52.714Z,5.90
2023-10-09T10:35:50.357Z,6.10
2023-10-09T10:38:50.821Z,6.50
2023-10-09T10:41:23.736Z,6.00
2023-10-09T10:43:52.942Z,7.00
2023-10-09T10:46:35.881Z,8.10
2023-10-09T10:49:19.073Z,7.60
2023-10-09T10:51:50.643Z,8.70
2023-10-09T10:54:32.828Z,8.90
2023-10-09T10:57:05.157Z,5.90
2023-10-09T10:59:40.498Z,5.10
2023-10-09T11:02:12.793Z,6.90
2023-10-09T11:04:45.259Z,6.00
2023-10-09T11:07:16.425Z,6.60
2023-10-09T11:10:00.226Z,5.70
2023-10-09T11:12:48.229Z,5.10
2023-10-09T11:15:24.832Z,6.40
2023-10-09T11:18:26.506Z,5.30
2023-10-09T11:21:04.324Z,5.60
2023-10-09T11:23:54.557Z,9.10
2023-10-09T11:26:32.322Z,8.70
2023-10-09T11:29:14.959Z,8.60
2023-10-09T11:32:06.405Z,5.90
2023-10-09T11:34:36.587Z,7.50
2023-10-09T11:37:16.915Z,7.00
2023-10-09T11:39:57.858Z,6.80
2023-10-09T11:42:37.220Z,7.00
2023-10-09T11:45:25.653Z,5.10
2023-10-09T11:48:01.256Z,6.20
2023-10-09T11:50:50.022Z,6.10
2023-10-09T11:53:21.340Z,6.40
2023-10-09T11:55:50.526Z,8.00
2023-10-09T11:58:25.497Z,7.50
2023-10-09T12:01:00.487Z,10.00
2023-10-09T12:03:31.345Z,10.20
2023-10-09T12:06:13.381Z,8.60
2023-10-09T12:08:41.885Z,9.70
2023-10-09T12:12:14.297Z,7.50
2023-10-09T12:14:45.288Z,6.30
2023-10-09T12:17:13.318Z,9.30
2023-10-09T12:19:41.308Z,7.10
2023-10-09T12:22:17.725Z,9.00
2023-10-09T12:24:47.222Z,6.70
2023-10-09T12:27:15.176Z,8.30
2023-10-09T12:29:48.840Z,6.60
2023-10-09T12:32:22.126Z,5.00
2023-10-09T12:34:52.308Z,5.30
2023-10-09T12:37:22.291Z,6.80
2023-10-09T12:39:51.415Z,7.20
2023-10-09T12:42:19.453Z,6.60
2023-10-09T12:44:47.337Z,8.10
2023-10-09T12:47:16.698Z,7.10
2023-10-09T12:49:45.935Z,11.90
2023-10-09T12:52:17.895Z,8.60
2023-10-09T12:54:49.792Z,11.40
2023-10-09T12:57:17.898Z,15.90
2023-10-09T12:59:50.020Z,152.60
2023-10-09T13:02:30.219Z,63.70
2023-10-09T13:05:01.514Z,19.90
2023-10-09T13:07:29.848Z,10.80
2023-10-09T13:10:10.336Z,8.20
2023-10-09T13:12:44.169Z,7.10
2023-10-09T13:15:12.661Z,8.30
2023-10-09T13:17:42.721Z,8.30
2023-10-09T13:20:17.645Z,11.40
2023-10-09T13:22:49.320Z,12.20
2023-10-09T13:25:33.555Z,8.90
2023-10-09T13:28:05.297Z,7.10
2023-10-09T13:30:41.440Z,7.80
2023-10-09T13:33:10.775Z,9.40
2023-10-09T13:35:39.426Z,14.90
2023-10-09T13:38:11.304Z,14.30
2023-10-09T13:40:39.466Z,12.50
2023-10-09T13:43:07.564Z,11.00
2023-10-09T13:45:40.398Z,12.60
2023-10-09T13:48:12.959Z,11.60
2023-10-09T13:50:44.197Z,13.90
2023-10-09T13:53:13.946Z,18.30
2023-10-09T13:55:45.295Z,13.60
2023-10-09T13:58:15.658Z,12.60
2023-10-09T14:00:44.674Z,10.50
2023-10-09T14:03:14.601Z,12.10
2023-10-09T14:06:02.286Z,16.80
2023-10-09T14:08:30.511Z,13.00
2023-10-09T14:10:58.634Z,9.80
2023-10-09T14:13:30.282Z,9.80
2023-10-09T14:16:01.415Z,10.50
2023-10-09T14:18:32.466Z,8.20
2023-10-09T14:21:11.307Z,14.40
2023-10-09T14:23:40.096Z,10.20
2023-10-09T14:26:07.991Z,9.90
2023-10-09T14:28:37.870Z,11.80
2023-10-09T14:31:13.312Z,13.50
2023-10-09T14:33:41.841Z,11.50
2023-10-09T14:36:09.942Z,12.40
2023-10-09T14:38:39.918Z,11.70
2023-10-09T14:41:13.356Z,12.40
2023-10-09T14:43:42.725Z,9.40
2023-10-09T14:46:15.170Z,9.20
2023-10-09T14:48:47.731Z,16.50
2023-10-09T14:51:16.283Z,14.60
2023-10-09T14:53:45.412Z,14.50
2023-10-09T14:56:17.279Z,13.10
2023-10-09T14:58:48.414Z,12.30
2023-10-09T15:01:20.795Z,11.80
2023-10-09T15:03:50.610Z,13.50
2023-10-09T15:06:19.717Z,17.50
2023-10-09T15:08:48.207Z,25.10
2023-10-09T15:11:16.407Z,29.30
2023-10-09T15:13:44.406Z,29.50
2023-10-09T15:16:12.988Z,29.80
2023-10-09T15:18:41.068Z,20.20
2023-10-09T15:21:10.156Z,21.80
2023-10-09T15:23:39.409Z,13.50
2023-10-09T15:26:08.444Z,21.20
2023-10-09T15:28:37.020Z,17.20
2023-10-09T15:31:12.463Z,18.20
2023-10-09T15:33:42.666Z,20.80
2023-10-09T15:36:21.656Z,20.50
2023-10-09T15:38:51.198Z,22.80
2023-10-09T15:41:22.594Z,18.80
2023-10-09T15:43:50.655Z,20.70
2023-10-09T15:46:18.974Z,19.80
2023-10-09T15:48:52.546Z,22.60
2023-10-09T15:51:21.032Z,33.60
2023-10-09T15:53:49.204Z,34.40
2023-10-09T15:56:19.469Z,27.10
2023-10-09T15:58:47.845Z,25.00
2023-10-09T16:01:19.889Z,25.50
2023-10-09T16:03:51.613Z,20.10
2023-10-09T16:06:19.720Z,16.10
2023-10-09T16:08:51.542Z,17.40
2023-10-09T16:11:24.725Z,17.90
2023-10-09T16:13:57.959Z,18.30
2023-10-09T16:16:33.356Z,23.70
2023-10-09T16:19:02.211Z,25.30
2023-10-09T16:21:31.010Z,24.20
2023-10-09T16:24:00.665Z,20.40
2023-10-09T16:26:30.013Z,30.00
2023-10-09T16:29:01.161Z,23.00
2023-10-09T16:31:29.254Z,23.30
2023-10-09T16:33:57.240Z,27.40
2023-10-09T16:36:25.133Z,21.80
2023-10-09T16:38:53.764Z,22.20
2023-10-09T16:41:27.185Z,18.70
2023-10-09T16:43:55.671Z,16.50
2023-10-09T16:46:25.792Z,17.40
2023-10-09T16:48:58.785Z,16.30
2023-10-09T16:51:27.935Z,17.20
2023-10-09T16:53:57.341Z,17.70
2023-10-09T16:56:25.547Z,20.10
2023-10-09T16:58:53.885Z,14.20
2023-10-09T17:01:28.994Z,19.50
2023-10-09T17:03:59.560Z,13.80
2023-10-09T17:06:30.544Z,17.80
2023-10-09T17:08:58.868Z,18.60
2023-10-09T17:11:26.862Z,25.50
2023-10-09T17:13:58.997Z,29.50
2023-10-09T17:16:33.040Z,21.30
2023-10-09T17:19:02.148Z,14.80
2023-10-09T17:21:37.430Z,14.00
2023-10-09T17:24:09.710Z,14.80
2023-10-09T17:26:39.966Z,18.80
2023-10-09T17:29:11.531Z,18.30
2023-10-09T17:31:40.915Z,17.30
2023-10-09T17:34:08.948Z,22.50
2023-10-09T17:36:36.842Z,17.80
2023-10-09T17:39:07.739Z,19.60
2023-10-09T17:41:39.172Z,21.40
2023-10-09T17:44:07.559Z,20.20
2023-10-09T17:46:35.955Z,20.90
2023-10-09T17:49:03.955Z,20.20
2023-10-09T17:51:31.782Z,26.00
2023-10-09T17:54:00.337Z,21.70
2023-10-09T17:56:28.261Z,21.20
2023-10-09T17:58:56.247Z,23.60
2023-10-09T18:01:29.168Z,24.70
2023-10-09T18:04:00.192Z,23.20
2023-10-09T18:06:28.548Z,24.40
2023-10-09T18:08:56.828Z,26.60
2023-10-09T18:11:25.534Z,27.60
2023-10-09T18:13:55.065Z,25.60
2023-10-09T18:16:24.045Z,24.20
2023-10-09T18:18:54.462Z,25.10
2023-10-09T18:21:22.903Z,28.50
2023-10-09T18:23:50.924Z,28.50
2023-10-09T18:26:20.092Z,28.80
2023-10-09T18:28:51.606Z,29.00
2023-10-09T18:31:20.320Z,28.90
2023-10-09T18:33:54.383Z,36.20
2023-10-09T18:36:22.906Z,39.50
2023-10-09T18:38:52.810Z,47.90
2023-10-09T18:41:23.740Z,36.80
2023-10-09T18:43:54.611Z,40.50
2023-10-09T18:46:27.826Z,50.80
2023-10-09T18:49:01.847Z,37.50
2023-10-09T18:51:31.884Z,38.60
2023-10-09T18:54:03.813Z,34.50
2023-10-09T18:56:37.167Z,34.00
2023-10-09T18:59:10.077Z,31.90
2023-10-09T19:01:38.346Z,30.80
2023-10-09T19:04:09.369Z,27.80
2023-10-09T19:06:38.048Z,32.10
2023-10-09T19:09:07.318Z,30.80
2023-10-09T19:11:40.237Z,30.20
2023-10-09T19:14:12.482Z,31.30
2023-10-09T19:16:40.532Z,42.60
2023-10-09T19:19:09.574Z,33.80
2023-10-09T19:21:37.590Z,33.40
2023-10-09T19:24:14.755Z,34.70
2023-10-09T19:26:43.722Z,33.50
2023-10-09T19:29:12.480Z,33.40
2023-10-09T19:31:40.711Z,30.70
2023-10-09T19:34:12.620Z,30.20
2023-10-09T19:36:42.467Z,30.00
2023-10-09T19:39:11.065Z,28.40
2023-10-09T19:41:39.437Z,29.10
2023-10-09T19:44:08.386Z,34.60
2023-10-09T19:46:39.516Z,36.10
2023-10-09T19:49:07.854Z,36.30
2023-10-09T19:51:36.131Z,37.50
2023-10-09T19:54:05.052Z,37.30
2023-10-09T19:56:33.648Z,37.50
2023-10-09T19:59:01.740Z,34.90
2023-10-09T20:01:30.908Z,38.60
2023-10-09T20:03:59.816Z,39.60
2023-10-09T20:06:30.013Z,42.20
2023-10-09T20:09:00.280Z,41.40
2023-10-09T20:11:28.245Z,36.80
2023-10-09T20:13:56.202Z,30.40
2023-10-09T20:16:27.765Z,29.10
2023-10-09T20:18:56.518Z,30.30
2023-10-09T20:21:24.671Z,28.20
2023-10-09T20:23:54.814Z,29.30
2023-10-09T20:26:24.140Z,31.10
2023-10-09T20:28:52.066Z,34.90
2023-10-09T20:31:23.458Z,34.90
2023-10-09T20:33:58.521Z,31.80
2023-10-09T20:36:30.197Z,31.40
2023-10-09T20:38:58.237Z,29.80
2023-10-09T20:41:29.070Z,29.90
2023-10-09T20:43:57.106Z,29.70
2023-10-09T20:46:25.901Z,31.10
2023-10-09T20:48:53.878Z,28.50
2023-10-09T20:51:21.879Z,32.50
2023-10-09T20:53:49.851Z,29.60
2023-10-09T20:56:18.737Z,29.30
2023-10-09T20:58:46.710Z,27.00
2023-10-09T21:01:17.864Z,30.40
2023-10-09T21:03:48.405Z,32.00
2023-10-09T21:06:18.122Z,28.30
2023-10-09T21:08:46.070Z,28.90
2023-10-09T21:11:53.169Z,29.40
2023-10-09T21:14:21.385Z,27.80
2023-10-09T21:16:49.501Z,29.00
2023-10-09T21:19:17.827Z,28.10
2023-10-09T21:21:45.748Z,33.40
2023-10-09T21:24:15.109Z,27.20
2023-10-09T21:26:43.067Z,27.20
2023-10-09T21:29:13.054Z,26.40
2023-10-09T21:31:41.302Z,28.60
2023-10-09T21:34:11.729Z,26.90
2023-10-09T21:36:39.645Z,26.50
2023-10-09T21:39:10.452Z,23.80
2023-10-09T21:41:38.676Z,25.20
2023-10-09T21:44:08.723Z,25.50
2023-10-09T21:46:36.754Z,26.10
2023-10-09T21:49:06.173Z,24.30
2023-10-09T21:51:34.247Z,25.40
2023-10-09T21:54:04.943Z,23.40
2023-10-09T21:56:33.034Z,26.80
2023-10-09T21:59:01.016Z,28.70
2023-10-09T22:01:29.188Z,28.10
2023-10-09T22:03:58.422Z,25.20
2023-10-09T22:06:26.696Z,24.60
2023-10-09T22:08:54.956Z,20.30
2023-10-09T22:11:22.874Z,24.10
2023-10-09T22:13:51.057Z,28.00
2023-10-09T22:16:19.042Z,29.10
2023-10-09T22:19:07.024Z,28.40
2023-10-09T22:21:48.772Z,26.30
2023-10-09T22:24:19.470Z,23.20
2023-10-09T22:26:52.326Z,21.40
2023-10-09T22:29:20.578Z,22.70
2023-10-09T22:31:48.850Z,21.30
2023-10-09T22:34:16.979Z,24.60
2023-10-09T22:36:54.281Z,25.20
2023-10-09T22:39:25.796Z,25.80
2023-10-09T22:41:55.893Z,25.40
2023-10-09T22:44:25.601Z,23.80
2023-10-09T22:46:56.837Z,23.90
2023-10-09T22:49:28.391Z,29.90
2023-10-09T22:51:58.125Z,28.90
2023-10-09T22:54:35.283Z,22.90
2023-10-09T22:57:24.484Z,23.80
2023-10-09T22:59:53.190Z,24.80
2023-10-09T23:02:44.158Z,25.20
2023-10-09T23:05:18.552Z,24.50
2023-10-09T23:08:00.071Z,24.20
2023-10-09T23:10:28.737Z,22.20
2023-10-09T23:13:15.348Z,20.70
2023-10-09T23:15:50.925Z,22.30
2023-10-09T23:18:33.366Z,23.40
2023-10-09T23:21:21.348Z,21.80
2023-10-09T23:24:09.707Z,27.30
2023-10-09T23:26:53.545Z,22.10
2023-10-09T23:29:30.895Z,30.80
2023-10-09T23:32:22.467Z,27.80
2023-10-09T23:35:00.694Z,23.40
2023-10-09T23:38:06.561Z,22.90
2023-10-09T23:40:41.394Z,21.50
2023-10-09T23:43:31.157Z,20.80
2023-10-09T23:46:01.544Z,20.90
2023-10-09T23:48:30.304Z,23.40
2023-10-09T23:51:03.839Z,27.50
2023-10-09T23:53:47.368Z,26.20
2023-10-09T23:56:35.289Z,24.90
2023-10-09T23:59:06.297Z,25.00
